< < Back
Terminal Aerodrome Forecast


Current Version              Previous Versions:   1  2  3  4  5  6  7  8  9  

Terminal Aerodrome Forecast

208
FTUS42 KCHS 251935 AAB
TAFCHS
TAF AMD
KCHS 251935Z 2520/2618 20010KT P6SM SCT060
     FM260400 VRB04KT P6SM FEW050=

Latest METAR

778
SAUS80 KWBC 261200
MTRCHS
METAR KCHS 261156Z 22004KT 10SM FEW120 23/20 A3022 RMK AO2 SLP231
T02330200 10233 20200 53013


USA.gov is the U.S. government's official web portal to all federal, state and local government web resources and services.